Hartley, Texas
Current Conditions -  °F | °C
As of 9:53 AM on Thursday 29 Jan 2015 (Local Time) from KDHT Reporting Station
Broken Clouds Broken Clouds  
Wind Chill: 36°   Ceiling: 8500
Heat Index: 44°   Visibility: 10mi
Dew Point: 26°   Wind: 21mph
Humidity: 49%   Direction: 10°N
Pressure: 30.49"   Gusts: 29mph
Location:  35.89°N, 102.4°W
Report Text: KDHT 291553Z AUTO 01018G25KT 10SM BKN085 07/M03 A3049 RMK AO2 SLP317 T00671033
Loading
Personal Weather Stations






























Interactive Weather Map New forecast layout! Learn more

10-Day Weather Forecast

Advertisements
Track Severe Weather on mobile